sensor_id;sensor_type;location;lat;lon;timestamp;P1;durP1;ratioP1;P2;durP2;ratioP2
33094;SDS011;19459;53.044;8.910;2024-01-15T00:00:41;17.13;;;2.33;;
33094;SDS011;19459;53.044;8.910;2024-01-15T00:03:07;10.40;;;1.95;;
33094;SDS011;19459;53.044;8.910;2024-01-15T00:05:34;9.95;;;2.05;;
33094;SDS011;19459;53.044;8.910;2024-01-15T00:08:00;10.18;;;1.80;;
33094;SDS011;19459;53.044;8.910;2024-01-15T00:10:26;11.25;;;1.83;;
33094;SDS011;19459;53.044;8.910;2024-01-15T00:12:52;12.25;;;2.20;;
33094;SDS011;19459;53.044;8.910;2024-01-15T00:15:17;8.95;;;2.90;;
33094;SDS011;19459;53.044;8.910;2024-01-15T00:17:43;19.17;;;2.42;;
33094;SDS011;19459;53.044;8.910;2024-01-15T00:20:09;10.30;;;2.42;;
33094;SDS011;19459;53.044;8.910;2024-01-15T00:22:36;16.75;;;2.72;;
33094;SDS011;19459;53.044;8.910;2024-01-15T00:25:02;19.92;;;3.00;;
33094;SDS011;19459;53.044;8.910;2024-01-15T00:27:28;14.02;;;2.47;;
33094;SDS011;19459;53.044;8.910;2024-01-15T00:29:54;14.13;;;2.95;;
33094;SDS011;19459;53.044;8.910;2024-01-15T00:32:20;14.75;;;2.65;;
33094;SDS011;19459;53.044;8.910;2024-01-15T00:34:45;20.02;;;2.25;;
33094;SDS011;19459;53.044;8.910;2024-01-15T00:37:11;9.55;;;2.58;;
33094;SDS011;19459;53.044;8.910;2024-01-15T00:39:38;9.40;;;2.65;;
33094;SDS011;19459;53.044;8.910;2024-01-15T00:42:03;15.82;;;2.88;;
33094;SDS011;19459;53.044;8.910;2024-01-15T00:44:30;13.30;;;3.88;;
33094;SDS011;19459;53.044;8.910;2024-01-15T00:46:55;17.33;;;3.05;;
33094;SDS011;19459;53.044;8.910;2024-01-15T00:49:21;13.70;;;2.30;;
33094;SDS011;19459;53.044;8.910;2024-01-15T00:51:47;21.45;;;2.88;;
33094;SDS011;19459;53.044;8.910;2024-01-15T00:54:13;14.00;;;2.75;;
33094;SDS011;19459;53.044;8.910;2024-01-15T00:56:38;23.10;;;4.13;;
33094;SDS011;19459;53.044;8.910;2024-01-15T00:59:04;23.00;;;2.50;;
33094;SDS011;19459;53.044;8.910;2024-01-15T01:01:30;10.48;;;2.78;;
33094;SDS011;19459;53.044;8.910;2024-01-15T01:03:56;18.98;;;2.92;;
33094;SDS011;19459;53.044;8.910;2024-01-15T01:06:22;13.57;;;3.25;;
33094;SDS011;19459;53.044;8.910;2024-01-15T01:08:48;16.70;;;3.13;;
33094;SDS011;19459;53.044;8.910;2024-01-15T01:11:14;11.52;;;2.08;;
33094;SDS011;19459;53.044;8.910;2024-01-15T01:13:40;17.70;;;3.20;;
33094;SDS011;19459;53.044;8.910;2024-01-15T01:16:07;13.23;;;2.10;;
33094;SDS011;19459;53.044;8.910;2024-01-15T01:18:33;21.85;;;3.65;;
33094;SDS011;19459;53.044;8.910;2024-01-15T01:20:58;16.88;;;2.45;;
33094;SDS011;19459;53.044;8.910;2024-01-15T01:23:24;14.82;;;2.72;;
33094;SDS011;19459;53.044;8.910;2024-01-15T01:25:50;15.75;;;3.45;;
33094;SDS011;19459;53.044;8.910;2024-01-15T01:28:16;9.75;;;2.20;;
33094;SDS011;19459;53.044;8.910;2024-01-15T01:30:41;15.10;;;5.68;;
33094;SDS011;19459;53.044;8.910;2024-01-15T01:33:07;10.30;;;2.25;;
33094;SDS011;19459;53.044;8.910;2024-01-15T01:35:33;13.68;;;3.08;;
33094;SDS011;19459;53.044;8.910;2024-01-15T01:37:59;16.50;;;2.08;;
33094;SDS011;19459;53.044;8.910;2024-01-15T01:40:25;8.63;;;3.17;;
33094;SDS011;19459;53.044;8.910;2024-01-15T01:42:50;18.05;;;3.15;;
33094;SDS011;19459;53.044;8.910;2024-01-15T01:45:16;9.20;;;1.88;;
33094;SDS011;19459;53.044;8.910;2024-01-15T01:47:42;12.25;;;2.28;;
33094;SDS011;19459;53.044;8.910;2024-01-15T01:50:09;12.45;;;3.05;;
33094;SDS011;19459;53.044;8.910;2024-01-15T01:52:35;12.82;;;1.95;;
33094;SDS011;19459;53.044;8.910;2024-01-15T01:55:02;14.45;;;2.10;;
33094;SDS011;19459;53.044;8.910;2024-01-15T01:57:30;13.65;;;3.08;;
33094;SDS011;19459;53.044;8.910;2024-01-15T01:59:58;16.52;;;4.13;;
33094;SDS011;19459;53.044;8.910;2024-01-15T02:02:25;16.15;;;2.95;;
33094;SDS011;19459;53.044;8.910;2024-01-15T02:04:51;12.55;;;2.38;;
33094;SDS011;19459;53.044;8.910;2024-01-15T02:07:17;9.52;;;1.90;;
33094;SDS011;19459;53.044;8.910;2024-01-15T02:09:44;9.73;;;1.70;;
33094;SDS011;19459;53.044;8.910;2024-01-15T02:12:10;13.05;;;2.47;;
33094;SDS011;19459;53.044;8.910;2024-01-15T02:14:36;9.55;;;1.80;;
33094;SDS011;19459;53.044;8.910;2024-01-15T02:17:02;11.30;;;2.53;;
33094;SDS011;19459;53.044;8.910;2024-01-15T02:19:28;19.90;;;2.45;;
33094;SDS011;19459;53.044;8.910;2024-01-15T02:21:54;19.90;;;3.05;;
33094;SDS011;19459;53.044;8.910;2024-01-15T02:24:19;12.88;;;2.08;;
33094;SDS011;19459;53.044;8.910;2024-01-15T02:26:45;19.10;;;3.42;;
33094;SDS011;19459;53.044;8.910;2024-01-15T02:29:11;21.60;;;3.22;;
33094;SDS011;19459;53.044;8.910;2024-01-15T02:31:39;16.38;;;3.00;;
33094;SDS011;19459;53.044;8.910;2024-01-15T02:34:04;21.13;;;3.47;;
33094;SDS011;19459;53.044;8.910;2024-01-15T02:36:30;12.82;;;3.22;;
33094;SDS011;19459;53.044;8.910;2024-01-15T02:38:56;26.10;;;3.60;;
33094;SDS011;19459;53.044;8.910;2024-01-15T02:41:22;16.33;;;3.33;;
33094;SDS011;19459;53.044;8.910;2024-01-15T02:43:47;20.15;;;4.03;;
33094;SDS011;19459;53.044;8.910;2024-01-15T02:46:13;17.13;;;2.88;;
33094;SDS011;19459;53.044;8.910;2024-01-15T02:48:39;23.20;;;3.33;;
33094;SDS011;19459;53.044;8.910;2024-01-15T02:51:05;20.70;;;2.63;;
33094;SDS011;19459;53.044;8.910;2024-01-15T02:53:31;15.60;;;3.10;;
33094;SDS011;19459;53.044;8.910;2024-01-15T02:55:56;24.42;;;6.35;;
33094;SDS011;19459;53.044;8.910;2024-01-15T02:58:22;16.42;;;3.45;;
33094;SDS011;19459;53.044;8.910;2024-01-15T03:00:48;18.83;;;4.75;;
33094;SDS011;19459;53.044;8.910;2024-01-15T03:03:14;16.85;;;3.25;;
33094;SDS011;19459;53.044;8.910;2024-01-15T03:05:39;19.45;;;3.42;;
33094;SDS011;19459;53.044;8.910;2024-01-15T03:08:05;12.82;;;2.17;;
33094;SDS011;19459;53.044;8.910;2024-01-15T03:10:31;16.35;;;2.75;;
33094;SDS011;19459;53.044;8.910;2024-01-15T03:12:57;11.35;;;2.75;;
33094;SDS011;19459;53.044;8.910;2024-01-15T03:15:23;15.15;;;2.78;;
33094;SDS011;19459;53.044;8.910;2024-01-15T03:17:48;17.40;;;2.55;;
33094;SDS011;19459;53.044;8.910;2024-01-15T03:20:14;7.40;;;2.40;;
33094;SDS011;19459;53.044;8.910;2024-01-15T03:22:40;12.73;;;2.95;;
33094;SDS011;19459;53.044;8.910;2024-01-15T03:25:06;10.75;;;2.13;;
33094;SDS011;19459;53.044;8.910;2024-01-15T03:27:32;18.63;;;3.17;;
33094;SDS011;19459;53.044;8.910;2024-01-15T03:29:58;14.80;;;3.25;;
33094;SDS011;19459;53.044;8.910;2024-01-15T03:32:24;14.70;;;2.88;;
33094;SDS011;19459;53.044;8.910;2024-01-15T03:34:50;18.48;;;2.72;;
33094;SDS011;19459;53.044;8.910;2024-01-15T03:37:17;12.48;;;2.13;;
33094;SDS011;19459;53.044;8.910;2024-01-15T03:39:43;14.27;;;3.97;;
33094;SDS011;19459;53.044;8.910;2024-01-15T03:42:08;9.18;;;1.95;;
33094;SDS011;19459;53.044;8.910;2024-01-15T03:44:34;9.48;;;1.83;;
33094;SDS011;19459;53.044;8.910;2024-01-15T03:47:00;9.88;;;1.95;;
33094;SDS011;19459;53.044;8.910;2024-01-15T03:49:26;17.92;;;2.20;;
33094;SDS011;19459;53.044;8.910;2024-01-15T03:51:51;8.77;;;1.85;;
33094;SDS011;19459;53.044;8.910;2024-01-15T03:54:17;7.32;;;1.50;;
33094;SDS011;19459;53.044;8.910;2024-01-15T03:56:43;10.20;;;2.08;;
33094;SDS011;19459;53.044;8.910;2024-01-15T03:59:09;15.10;;;2.15;;
33094;SDS011;19459;53.044;8.910;2024-01-15T04:01:34;21.50;;;2.40;;
33094;SDS011;19459;53.044;8.910;2024-01-15T04:04:00;11.50;;;1.73;;
33094;SDS011;19459;53.044;8.910;2024-01-15T04:06:26;9.80;;;2.35;;
33094;SDS011;19459;53.044;8.910;2024-01-15T04:08:52;20.95;;;2.22;;
33094;SDS011;19459;53.044;8.910;2024-01-15T04:11:17;15.60;;;2.92;;
33094;SDS011;19459;53.044;8.910;2024-01-15T04:13:43;11.15;;;3.03;;
33094;SDS011;19459;53.044;8.910;2024-01-15T04:16:09;16.05;;;2.50;;
33094;SDS011;19459;53.044;8.910;2024-01-15T04:18:35;6.20;;;2.00;;
33094;SDS011;19459;53.044;8.910;2024-01-15T04:21:00;21.33;;;3.00;;
33094;SDS011;19459;53.044;8.910;2024-01-15T04:23:29;23.23;;;3.17;;
33094;SDS011;19459;53.044;8.910;2024-01-15T04:25:55;14.82;;;3.00;;
33094;SDS011;19459;53.044;8.910;2024-01-15T04:28:21;13.77;;;2.95;;
33094;SDS011;19459;53.044;8.910;2024-01-15T04:30:46;20.90;;;3.17;;
33094;SDS011;19459;53.044;8.910;2024-01-15T04:33:12;14.65;;;2.75;;
33094;SDS011;19459;53.044;8.910;2024-01-15T04:35:38;14.77;;;2.58;;
33094;SDS011;19459;53.044;8.910;2024-01-15T04:38:04;20.08;;;4.72;;
33094;SDS011;19459;53.044;8.910;2024-01-15T04:40:29;15.05;;;2.50;;
33094;SDS011;19459;53.044;8.910;2024-01-15T04:42:55;16.60;;;2.75;;
33094;SDS011;19459;53.044;8.910;2024-01-15T04:45:21;19.77;;;3.38;;
33094;SDS011;19459;53.044;8.910;2024-01-15T04:47:53;15.90;;;2.78;;
33094;SDS011;19459;53.044;8.910;2024-01-15T04:50:21;11.75;;;3.25;;
33094;SDS011;19459;53.044;8.910;2024-01-15T04:52:47;20.52;;;3.30;;
33094;SDS011;19459;53.044;8.910;2024-01-15T04:55:13;25.48;;;3.35;;
33094;SDS011;19459;53.044;8.910;2024-01-15T04:57:39;20.35;;;3.50;;
33094;SDS011;19459;53.044;8.910;2024-01-15T05:00:05;19.88;;;3.30;;
33094;SDS011;19459;53.044;8.910;2024-01-15T05:02:31;14.50;;;3.45;;
33094;SDS011;19459;53.044;8.910;2024-01-15T05:04:57;23.20;;;3.97;;
33094;SDS011;19459;53.044;8.910;2024-01-15T05:07:23;15.10;;;3.03;;
33094;SDS011;19459;53.044;8.910;2024-01-15T05:09:49;13.63;;;2.47;;
33094;SDS011;19459;53.044;8.910;2024-01-15T05:12:14;12.95;;;2.28;;
33094;SDS011;19459;53.044;8.910;2024-01-15T05:14:40;17.15;;;2.65;;
33094;SDS011;19459;53.044;8.910;2024-01-15T05:17:06;8.82;;;2.00;;
33094;SDS011;19459;53.044;8.910;2024-01-15T05:19:32;16.27;;;2.80;;
33094;SDS011;19459;53.044;8.910;2024-01-15T05:21:57;12.63;;;2.30;;
33094;SDS011;19459;53.044;8.910;2024-01-15T05:24:23;14.93;;;2.83;;
33094;SDS011;19459;53.044;8.910;2024-01-15T05:26:51;8.75;;;2.63;;
33094;SDS011;19459;53.044;8.910;2024-01-15T05:29:17;19.83;;;4.45;;
33094;SDS011;19459;53.044;8.910;2024-01-15T05:31:43;18.25;;;2.97;;
33094;SDS011;19459;53.044;8.910;2024-01-15T05:34:09;19.00;;;2.90;;
33094;SDS011;19459;53.044;8.910;2024-01-15T05:36:35;18.33;;;2.20;;
33094;SDS011;19459;53.044;8.910;2024-01-15T05:39:01;17.65;;;3.65;;
33094;SDS011;19459;53.044;8.910;2024-01-15T05:41:27;12.18;;;2.55;;
33094;SDS011;19459;53.044;8.910;2024-01-15T05:43:53;14.98;;;3.22;;
33094;SDS011;19459;53.044;8.910;2024-01-15T05:46:19;14.23;;;3.08;;
33094;SDS011;19459;53.044;8.910;2024-01-15T05:48:45;13.60;;;2.95;;
33094;SDS011;19459;53.044;8.910;2024-01-15T05:51:10;14.13;;;3.05;;
33094;SDS011;19459;53.044;8.910;2024-01-15T05:53:37;12.80;;;2.53;;
33094;SDS011;19459;53.044;8.910;2024-01-15T05:56:05;22.52;;;4.35;;
33094;SDS011;19459;53.044;8.910;2024-01-15T05:58:31;18.25;;;3.90;;
33094;SDS011;19459;53.044;8.910;2024-01-15T06:00:56;19.95;;;3.63;;
33094;SDS011;19459;53.044;8.910;2024-01-15T06:03:23;18.13;;;3.85;;
33094;SDS011;19459;53.044;8.910;2024-01-15T06:05:48;11.82;;;3.45;;
33094;SDS011;19459;53.044;8.910;2024-01-15T06:08:14;24.67;;;5.10;;
33094;SDS011;19459;53.044;8.910;2024-01-15T06:10:40;17.45;;;3.30;;
33094;SDS011;19459;53.044;8.910;2024-01-15T06:13:05;22.05;;;4.05;;
33094;SDS011;19459;53.044;8.910;2024-01-15T06:15:31;12.48;;;4.03;;
33094;SDS011;19459;53.044;8.910;2024-01-15T06:17:57;18.13;;;4.10;;
33094;SDS011;19459;53.044;8.910;2024-01-15T06:20:22;21.52;;;3.75;;
33094;SDS011;19459;53.044;8.910;2024-01-15T06:22:48;19.75;;;3.17;;
33094;SDS011;19459;53.044;8.910;2024-01-15T06:25:14;20.95;;;3.05;;
33094;SDS011;19459;53.044;8.910;2024-01-15T06:27:40;11.70;;;3.42;;
33094;SDS011;19459;53.044;8.910;2024-01-15T06:30:06;22.25;;;4.47;;
33094;SDS011;19459;53.044;8.910;2024-01-15T06:32:32;31.27;;;3.50;;
33094;SDS011;19459;53.044;8.910;2024-01-15T06:34:58;11.23;;;3.15;;
33094;SDS011;19459;53.044;8.910;2024-01-15T06:37:23;14.55;;;3.05;;
33094;SDS011;19459;53.044;8.910;2024-01-15T06:39:49;17.48;;;3.00;;
33094;SDS011;19459;53.044;8.910;2024-01-15T06:42:15;16.92;;;3.25;;
33094;SDS011;19459;53.044;8.910;2024-01-15T06:44:41;8.82;;;2.53;;
33094;SDS011;19459;53.044;8.910;2024-01-15T06:47:06;22.58;;;2.80;;
33094;SDS011;19459;53.044;8.910;2024-01-15T06:49:32;14.63;;;2.63;;
33094;SDS011;19459;53.044;8.910;2024-01-15T06:52:01;13.32;;;3.20;;
33094;SDS011;19459;53.044;8.910;2024-01-15T06:54:26;11.00;;;2.72;;
33094;SDS011;19459;53.044;8.910;2024-01-15T06:56:52;11.45;;;2.47;;
33094;SDS011;19459;53.044;8.910;2024-01-15T06:59:18;14.90;;;2.65;;
33094;SDS011;19459;53.044;8.910;2024-01-15T07:01:44;8.13;;;2.60;;
33094;SDS011;19459;53.044;8.910;2024-01-15T07:04:09;14.75;;;3.42;;
33094;SDS011;19459;53.044;8.910;2024-01-15T07:06:35;9.77;;;2.55;;
33094;SDS011;19459;53.044;8.910;2024-01-15T07:09:01;11.13;;;1.88;;
33094;SDS011;19459;53.044;8.910;2024-01-15T07:11:27;7.75;;;1.92;;
33094;SDS011;19459;53.044;8.910;2024-01-15T07:13:52;7.85;;;1.73;;
33094;SDS011;19459;53.044;8.910;2024-01-15T07:16:18;8.80;;;1.75;;
33094;SDS011;19459;53.044;8.910;2024-01-15T07:18:44;15.43;;;2.13;;
33094;SDS011;19459;53.044;8.910;2024-01-15T07:21:10;7.50;;;1.65;;
33094;SDS011;19459;53.044;8.910;2024-01-15T07:23:35;11.57;;;2.97;;
33094;SDS011;19459;53.044;8.910;2024-01-15T07:26:01;13.77;;;3.97;;
33094;SDS011;19459;53.044;8.910;2024-01-15T07:28:28;14.45;;;4.50;;
33094;SDS011;19459;53.044;8.910;2024-01-15T07:30:55;11.25;;;3.45;;
33094;SDS011;19459;53.044;8.910;2024-01-15T07:33:20;14.20;;;4.50;;
33094;SDS011;19459;53.044;8.910;2024-01-15T07:35:46;14.55;;;4.30;;
33094;SDS011;19459;53.044;8.910;2024-01-15T07:38:12;14.52;;;4.13;;
33094;SDS011;19459;53.044;8.910;2024-01-15T07:40:38;19.65;;;5.43;;
33094;SDS011;19459;53.044;8.910;2024-01-15T07:43:03;19.23;;;5.32;;
33094;SDS011;19459;53.044;8.910;2024-01-15T07:45:30;16.20;;;4.95;;
33094;SDS011;19459;53.044;8.910;2024-01-15T07:47:55;16.25;;;4.80;;
33094;SDS011;19459;53.044;8.910;2024-01-15T07:50:21;22.83;;;4.75;;
33094;SDS011;19459;53.044;8.910;2024-01-15T07:52:47;11.73;;;3.53;;
33094;SDS011;19459;53.044;8.910;2024-01-15T07:55:13;15.93;;;4.25;;
33094;SDS011;19459;53.044;8.910;2024-01-15T07:57:39;13.07;;;3.22;;
33094;SDS011;19459;53.044;8.910;2024-01-15T08:00:05;21.08;;;4.30;;
33094;SDS011;19459;53.044;8.910;2024-01-15T08:02:31;21.13;;;4.72;;
33094;SDS011;19459;53.044;8.910;2024-01-15T08:04:57;21.80;;;5.38;;
33094;SDS011;19459;53.044;8.910;2024-01-15T08:07:26;14.43;;;4.00;;
33094;SDS011;19459;53.044;8.910;2024-01-15T08:09:52;15.48;;;3.80;;
33094;SDS011;19459;53.044;8.910;2024-01-15T08:12:18;17.83;;;3.28;;
33094;SDS011;19459;53.044;8.910;2024-01-15T08:14:43;17.00;;;2.75;;
33094;SDS011;19459;53.044;8.910;2024-01-15T08:17:10;8.52;;;2.35;;
33094;SDS011;19459;53.044;8.910;2024-01-15T08:19:36;17.58;;;2.80;;
33094;SDS011;19459;53.044;8.910;2024-01-15T08:22:01;10.90;;;2.28;;
33094;SDS011;19459;53.044;8.910;2024-01-15T08:24:28;6.25;;;1.75;;
33094;SDS011;19459;53.044;8.910;2024-01-15T08:26:53;10.48;;;2.40;;
33094;SDS011;19459;53.044;8.910;2024-01-15T08:29:21;7.60;;;1.95;;
33094;SDS011;19459;53.044;8.910;2024-01-15T08:31:47;10.38;;;1.73;;
33094;SDS011;19459;53.044;8.910;2024-01-15T08:34:13;11.32;;;2.03;;
33094;SDS011;19459;53.044;8.910;2024-01-15T08:36:38;20.40;;;3.30;;
33094;SDS011;19459;53.044;8.910;2024-01-15T08:39:05;20.90;;;2.65;;
33094;SDS011;19459;53.044;8.910;2024-01-15T08:41:34;13.95;;;3.67;;
33094;SDS011;19459;53.044;8.910;2024-01-15T08:44:00;8.80;;;2.63;;
33094;SDS011;19459;53.044;8.910;2024-01-15T08:46:27;14.50;;;4.35;;
33094;SDS011;19459;53.044;8.910;2024-01-15T08:48:53;25.30;;;3.78;;
33094;SDS011;19459;53.044;8.910;2024-01-15T08:51:19;12.68;;;3.40;;
33094;SDS011;19459;53.044;8.910;2024-01-15T08:53:45;19.67;;;3.10;;
33094;SDS011;19459;53.044;8.910;2024-01-15T08:56:11;31.92;;;4.70;;
33094;SDS011;19459;53.044;8.910;2024-01-15T08:58:36;14.85;;;4.50;;
33094;SDS011;19459;53.044;8.910;2024-01-15T09:01:02;22.95;;;5.40;;
33094;SDS011;19459;53.044;8.910;2024-01-15T09:03:28;17.00;;;3.70;;
33094;SDS011;19459;53.044;8.910;2024-01-15T09:05:54;14.88;;;4.15;;
33094;SDS011;19459;53.044;8.910;2024-01-15T09:08:20;18.38;;;3.55;;
33094;SDS011;19459;53.044;8.910;2024-01-15T09:10:46;16.52;;;3.67;;
33094;SDS011;19459;53.044;8.910;2024-01-15T09:13:11;20.50;;;3.75;;
33094;SDS011;19459;53.044;8.910;2024-01-15T09:15:37;17.55;;;4.07;;
33094;SDS011;19459;53.044;8.910;2024-01-15T09:18:03;13.73;;;3.72;;
33094;SDS011;19459;53.044;8.910;2024-01-15T09:20:30;17.85;;;3.92;;
33094;SDS011;19459;53.044;8.910;2024-01-15T09:22:56;11.48;;;3.88;;
33094;SDS011;19459;53.044;8.910;2024-01-15T09:25:21;13.38;;;3.88;;
33094;SDS011;19459;53.044;8.910;2024-01-15T09:27:47;11.35;;;3.75;;
33094;SDS011;19459;53.044;8.910;2024-01-15T09:30:13;14.80;;;4.68;;
33094;SDS011;19459;53.044;8.910;2024-01-15T09:32:39;11.10;;;4.95;;
33094;SDS011;19459;53.044;8.910;2024-01-15T09:35:05;15.00;;;5.22;;
33094;SDS011;19459;53.044;8.910;2024-01-15T09:37:31;12.73;;;4.90;;
33094;SDS011;19459;53.044;8.910;2024-01-15T09:39:57;12.50;;;5.18;;
33094;SDS011;19459;53.044;8.910;2024-01-15T09:42:26;17.77;;;6.38;;
33094;SDS011;19459;53.044;8.910;2024-01-15T09:44:53;19.45;;;5.30;;
33094;SDS011;19459;53.044;8.910;2024-01-15T09:47:20;19.30;;;5.45;;
33094;SDS011;19459;53.044;8.910;2024-01-15T09:49:47;11.88;;;4.30;;
33094;SDS011;19459;53.044;8.910;2024-01-15T09:52:13;16.73;;;3.47;;
33094;SDS011;19459;53.044;8.910;2024-01-15T09:54:43;12.88;;;3.50;;
33094;SDS011;19459;53.044;8.910;2024-01-15T09:57:09;12.98;;;3.38;;
33094;SDS011;19459;53.044;8.910;2024-01-15T09:59:36;17.65;;;3.35;;
33094;SDS011;19459;53.044;8.910;2024-01-15T10:02:02;9.40;;;3.03;;
33094;SDS011;19459;53.044;8.910;2024-01-15T10:04:29;9.77;;;3.15;;
33094;SDS011;19459;53.044;8.910;2024-01-15T10:06:57;12.90;;;3.15;;
33094;SDS011;19459;53.044;8.910;2024-01-15T10:09:25;11.73;;;2.78;;
33094;SDS011;19459;53.044;8.910;2024-01-15T10:11:54;17.58;;;2.58;;
33094;SDS011;19459;53.044;8.910;2024-01-15T10:14:20;21.25;;;4.82;;
33094;SDS011;19459;53.044;8.910;2024-01-15T10:16:46;12.75;;;3.08;;
33094;SDS011;19459;53.044;8.910;2024-01-15T10:19:12;13.45;;;2.70;;
33094;SDS011;19459;53.044;8.910;2024-01-15T10:21:38;7.38;;;2.08;;
33094;SDS011;19459;53.044;8.910;2024-01-15T10:24:04;9.43;;;2.63;;
33094;SDS011;19459;53.044;8.910;2024-01-15T10:26:30;8.45;;;2.30;;
33094;SDS011;19459;53.044;8.910;2024-01-15T10:29:00;13.85;;;2.72;;
33094;SDS011;19459;53.044;8.910;2024-01-15T10:31:26;9.55;;;2.83;;
33094;SDS011;19459;53.044;8.910;2024-01-15T10:33:52;16.20;;;3.35;;
33094;SDS011;19459;53.044;8.910;2024-01-15T10:36:18;16.65;;;5.00;;
33094;SDS011;19459;53.044;8.910;2024-01-15T10:38:44;18.33;;;6.50;;
33094;SDS011;19459;53.044;8.910;2024-01-15T10:41:11;18.25;;;7.75;;
33094;SDS011;19459;53.044;8.910;2024-01-15T10:43:38;23.05;;;8.25;;
33094;SDS011;19459;53.044;8.910;2024-01-15T10:46:06;32.30;;;12.25;;
33094;SDS011;19459;53.044;8.910;2024-01-15T10:48:33;22.75;;;10.13;;
33094;SDS011;19459;53.044;8.910;2024-01-15T10:51:00;30.85;;;11.40;;
33094;SDS011;19459;53.044;8.910;2024-01-15T10:53:35;25.98;;;10.30;;
33094;SDS011;19459;53.044;8.910;2024-01-15T10:56:07;22.10;;;9.77;;
33094;SDS011;19459;53.044;8.910;2024-01-15T10:58:36;18.52;;;7.03;;
33094;SDS011;19459;53.044;8.910;2024-01-15T11:01:04;17.92;;;6.32;;
33094;SDS011;19459;53.044;8.910;2024-01-15T11:03:31;13.88;;;5.88;;
33094;SDS011;19459;53.044;8.910;2024-01-15T11:05:57;13.30;;;5.47;;
33094;SDS011;19459;53.044;8.910;2024-01-15T11:08:23;18.35;;;4.72;;
33094;SDS011;19459;53.044;8.910;2024-01-15T11:10:50;12.65;;;4.28;;
33094;SDS011;19459;53.044;8.910;2024-01-15T11:16:01;22.55;;;4.35;;
33094;SDS011;19459;53.044;8.910;2024-01-15T11:18:35;11.93;;;4.13;;
33094;SDS011;19459;53.044;8.910;2024-01-15T11:21:27;18.92;;;3.70;;
33094;SDS011;19459;53.044;8.910;2024-01-15T11:29:01;13.98;;;2.80;;
33094;SDS011;19459;53.044;8.910;2024-01-15T11:34:06;9.23;;;2.63;;
33094;SDS011;19459;53.044;8.910;2024-01-15T11:42:01;10.13;;;2.67;;
33094;SDS011;19459;53.044;8.910;2024-01-15T11:44:28;10.10;;;3.42;;
33094;SDS011;19459;53.044;8.910;2024-01-15T11:47:02;11.73;;;4.30;;
33094;SDS011;19459;53.044;8.910;2024-01-15T11:52:34;9.02;;;2.55;;
33094;SDS011;19459;53.044;8.910;2024-01-15T11:57:42;10.18;;;1.88;;
33094;SDS011;19459;53.044;8.910;2024-01-15T12:00:19;15.20;;;2.95;;
33094;SDS011;19459;53.044;8.910;2024-01-15T12:02:46;12.43;;;2.30;;
33094;SDS011;19459;53.044;8.910;2024-01-15T12:05:14;10.57;;;2.47;;
33094;SDS011;19459;53.044;8.910;2024-01-15T12:07:42;8.10;;;2.13;;
33094;SDS011;19459;53.044;8.910;2024-01-15T12:10:10;11.93;;;2.05;;
33094;SDS011;19459;53.044;8.910;2024-01-15T12:12:47;10.43;;;2.38;;
33094;SDS011;19459;53.044;8.910;2024-01-15T12:15:27;6.95;;;1.88;;
33094;SDS011;19459;53.044;8.910;2024-01-15T12:17:58;16.85;;;4.30;;
33094;SDS011;19459;53.044;8.910;2024-01-15T12:20:27;9.57;;;2.78;;
33094;SDS011;19459;53.044;8.910;2024-01-15T12:22:55;10.68;;;3.53;;
33094;SDS011;19459;53.044;8.910;2024-01-15T12:25:21;5.10;;;2.13;;
33094;SDS011;19459;53.044;8.910;2024-01-15T12:27:49;5.47;;;2.25;;
33094;SDS011;19459;53.044;8.910;2024-01-15T12:30:16;7.47;;;2.35;;
33094;SDS011;19459;53.044;8.910;2024-01-15T12:32:42;13.55;;;2.30;;
33094;SDS011;19459;53.044;8.910;2024-01-15T12:35:08;12.63;;;2.30;;
33094;SDS011;19459;53.044;8.910;2024-01-15T12:37:36;15.65;;;3.10;;
33094;SDS011;19459;53.044;8.910;2024-01-15T12:40:06;8.95;;;2.38;;
33094;SDS011;19459;53.044;8.910;2024-01-15T12:42:34;10.57;;;2.35;;
33094;SDS011;19459;53.044;8.910;2024-01-15T12:45:02;8.25;;;2.15;;
33094;SDS011;19459;53.044;8.910;2024-01-15T12:47:33;12.35;;;2.53;;
33094;SDS011;19459;53.044;8.910;2024-01-15T12:49:58;8.25;;;2.53;;
33094;SDS011;19459;53.044;8.910;2024-01-15T12:52:27;9.32;;;2.38;;
33094;SDS011;19459;53.044;8.910;2024-01-15T12:54:54;9.07;;;3.15;;
33094;SDS011;19459;53.044;8.910;2024-01-15T12:57:21;9.35;;;2.38;;
33094;SDS011;19459;53.044;8.910;2024-01-15T12:59:48;11.63;;;2.70;;
33094;SDS011;19459;53.044;8.910;2024-01-15T13:02:17;7.55;;;2.10;;
33094;SDS011;19459;53.044;8.910;2024-01-15T13:04:43;14.88;;;2.45;;
33094;SDS011;19459;53.044;8.910;2024-01-15T13:07:09;13.05;;;2.72;;
33094;SDS011;19459;53.044;8.910;2024-01-15T13:09:35;15.43;;;2.13;;
33094;SDS011;19459;53.044;8.910;2024-01-15T13:12:01;11.27;;;6.28;;
33094;SDS011;19459;53.044;8.910;2024-01-15T13:14:28;11.75;;;4.35;;
33094;SDS011;19459;53.044;8.910;2024-01-15T13:16:54;15.00;;;5.43;;
33094;SDS011;19459;53.044;8.910;2024-01-15T13:19:21;11.50;;;4.18;;
33094;SDS011;19459;53.044;8.910;2024-01-15T13:21:48;10.57;;;3.28;;
33094;SDS011;19459;53.044;8.910;2024-01-15T13:24:15;9.55;;;3.63;;
33094;SDS011;19459;53.044;8.910;2024-01-15T13:26:40;9.15;;;4.68;;
33094;SDS011;19459;53.044;8.910;2024-01-15T13:29:06;9.70;;;3.30;;
33094;SDS011;19459;53.044;8.910;2024-01-15T13:31:32;12.50;;;4.00;;
33094;SDS011;19459;53.044;8.910;2024-01-15T13:33:59;10.15;;;3.38;;
33094;SDS011;19459;53.044;8.910;2024-01-15T13:36:25;6.93;;;3.63;;
33094;SDS011;19459;53.044;8.910;2024-01-15T13:38:52;18.00;;;3.67;;
33094;SDS011;19459;53.044;8.910;2024-01-15T13:41:19;11.00;;;3.30;;
33094;SDS011;19459;53.044;8.910;2024-01-15T13:43:52;16.45;;;3.80;;
33094;SDS011;19459;53.044;8.910;2024-01-15T13:46:20;6.80;;;3.28;;
33094;SDS011;19459;53.044;8.910;2024-01-15T13:48:51;10.02;;;3.38;;
33094;SDS011;19459;53.044;8.910;2024-01-15T13:51:17;11.90;;;3.38;;
33094;SDS011;19459;53.044;8.910;2024-01-15T13:54:03;17.90;;;4.40;;
33094;SDS011;19459;53.044;8.910;2024-01-15T13:56:29;20.20;;;5.50;;
33094;SDS011;19459;53.044;8.910;2024-01-15T13:58:57;24.70;;;6.60;;
33094;SDS011;19459;53.044;8.910;2024-01-15T14:01:24;13.23;;;4.20;;
33094;SDS011;19459;53.044;8.910;2024-01-15T14:03:50;13.35;;;5.28;;
33094;SDS011;19459;53.044;8.910;2024-01-15T14:06:16;17.05;;;7.47;;
33094;SDS011;19459;53.044;8.910;2024-01-15T14:08:41;15.48;;;6.32;;
33094;SDS011;19459;53.044;8.910;2024-01-15T14:11:10;15.07;;;6.63;;
33094;SDS011;19459;53.044;8.910;2024-01-15T14:13:36;13.35;;;5.68;;
33094;SDS011;19459;53.044;8.910;2024-01-15T14:16:01;18.58;;;7.68;;
33094;SDS011;19459;53.044;8.910;2024-01-15T14:18:27;14.02;;;8.18;;
33094;SDS011;19459;53.044;8.910;2024-01-15T14:20:53;16.83;;;7.28;;
33094;SDS011;19459;53.044;8.910;2024-01-15T14:23:25;38.00;;;32.53;;
33094;SDS011;19459;53.044;8.910;2024-01-15T14:25:51;19.20;;;12.65;;
33094;SDS011;19459;53.044;8.910;2024-01-15T14:28:16;11.38;;;8.98;;
33094;SDS011;19459;53.044;8.910;2024-01-15T14:30:42;14.55;;;12.32;;
33094;SDS011;19459;53.044;8.910;2024-01-15T14:33:08;14.32;;;9.73;;
33094;SDS011;19459;53.044;8.910;2024-01-15T14:35:34;27.77;;;18.95;;
33094;SDS011;19459;53.044;8.910;2024-01-15T14:38:00;15.20;;;11.52;;
33094;SDS011;19459;53.044;8.910;2024-01-15T14:40:25;17.02;;;12.70;;
33094;SDS011;19459;53.044;8.910;2024-01-15T14:42:52;11.75;;;8.98;;
33094;SDS011;19459;53.044;8.910;2024-01-15T14:45:18;14.32;;;9.13;;
33094;SDS011;19459;53.044;8.910;2024-01-15T14:47:44;15.07;;;7.57;;
33094;SDS011;19459;53.044;8.910;2024-01-15T14:50:09;10.07;;;6.30;;
33094;SDS011;19459;53.044;8.910;2024-01-15T14:52:35;14.50;;;6.72;;